Time;durP1;ratioP1;P1;durP2;ratioP2;P2;SDS_P1;SDS_P2;PMS_P1;PMS_P2;Temp;Humidity;BMP_temperature;BMP_pressure;BME280_temperature;BME280_humidity;BME280_pressure;Samples;Min_cycle;Max_cycle;Signal;HPM_P1;HPM_P2
2022/08/06 00:02:37;;;;;;;3.47;1.00;;;;;;;17.26;100.00;99719.03;5053070;27;20201;-78
2022/08/06 00:05:06;;;;;;;2.60;1.00;;;;;;;17.22;100.00;99722.97;5049100;28;20220;-78
2022/08/06 00:07:35;;;;;;;2.37;1.23;;;;;;;17.07;100.00;99720.56;5053778;27;20197;-78
2022/08/06 00:10:16;;;;;;;4.93;1.17;;;;;;;16.85;100.00;99726.81;5045044;28;20193;-78
2022/08/06 00:12:46;;;;;;;1.53;0.90;;;;;;;16.98;100.00;99731.16;5053371;28;20193;-78
2022/08/06 00:15:19;;;;;;;4.03;1.10;;;;;;;16.92;100.00;99719.16;5057521;28;20197;-78
2022/08/06 00:18:08;;;;;;;3.17;1.20;;;;;;;16.88;100.00;99723.88;5049365;28;20640;-78
2022/08/06 00:20:39;;;;;;;2.77;1.20;;;;;;;16.93;100.00;99720.00;5048971;28;20416;-78
2022/08/06 00:23:09;;;;;;;1.07;0.70;;;;;;;16.78;100.00;99733.63;5052637;28;20224;-78
2022/08/06 00:25:45;;;;;;;2.17;1.03;;;;;;;16.99;100.00;99731.06;5048558;28;20216;-78
2022/08/06 00:28:20;;;;;;;3.10;1.03;;;;;;;17.00;100.00;99738.13;5049230;27;20288;-78
2022/08/06 00:31:00;;;;;;;3.37;1.00;;;;;;;17.07;100.00;99738.44;5049128;28;20193;-78
2022/08/06 00:33:41;;;;;;;1.90;0.90;;;;;;;17.06;100.00;99742.09;4991950;28;20203;-78
2022/08/06 00:36:26;;;;;;;5.40;1.07;;;;;;;16.91;100.00;99754.06;5029015;28;20206;-78
2022/08/06 00:38:56;;;;;;;3.00;1.00;;;;;;;16.75;100.00;99754.44;5024300;28;20245;-78
2022/08/06 00:41:28;;;;;;;2.07;1.10;;;;;;;16.69;100.00;99754.91;5027899;28;20221;-78
2022/08/06 00:44:09;;;;;;;3.80;1.03;;;;;;;16.66;100.00;99753.31;5029752;28;20225;-78
2022/08/06 00:46:41;;;;;;;1.60;0.97;;;;;;;16.71;100.00;99753.00;5028442;28;20366;-78
2022/08/06 00:49:13;;;;;;;4.60;0.90;;;;;;;16.49;100.00;99773.34;5028854;28;20201;-78
2022/08/06 00:52:01;;;;;;;2.63;1.00;;;;;;;16.59;100.00;99773.47;5084441;28;20203;-78
2022/08/06 00:54:30;;;;;;;1.10;0.80;;;;;;;16.63;100.00;99766.09;5080813;28;20218;-78
2022/08/06 00:57:04;;;;;;;1.17;1.00;;;;;;;16.74;100.00;99772.31;5051454;28;20245;-78
2022/08/06 00:59:38;;;;;;;3.13;1.00;;;;;;;16.71;100.00;99769.03;5055977;27;20678;-78
2022/08/06 01:02:10;;;;;;;1.13;0.90;;;;;;;16.50;100.00;99772.41;5048902;28;20303;-78
2022/08/06 01:04:43;;;;;;;2.40;1.00;;;;;;;16.51;100.00;99776.78;5050553;28;20236;-78
2022/08/06 01:07:12;;;;;;;1.60;1.00;;;;;;;16.46;100.00;99791.47;5051620;28;20205;-78
2022/08/06 01:09:42;;;;;;;2.13;1.00;;;;;;;16.53;100.00;99787.38;5133021;27;20232;-78
2022/08/06 01:12:26;;;;;;;1.97;0.90;;;;;;;16.56;100.00;99787.13;5128519;27;20704;-78
2022/08/06 01:15:00;;;;;;;1.60;0.90;;;;;;;16.43;100.00;99786.38;5131980;27;20254;-78
2022/08/06 01:17:40;;;;;;;2.03;0.90;;;;;;;16.32;100.00;99784.53;5127272;27;20198;-78
2022/08/06 01:20:23;;;;;;;1.20;0.93;;;;;;;16.24;100.00;99795.81;5128303;27;20194;-77
2022/08/06 01:23:29;;;;;;;3.83;1.27;;;;;;;16.24;100.00;99809.19;5134096;27;20202;-78
2022/08/06 01:26:37;;;;;;;2.90;1.20;;;;;;;16.01;100.00;99802.06;5131049;27;20218;-78
2022/08/06 01:29:12;;;;;;;1.70;0.90;;;;;;;16.09;100.00;99793.47;5048079;28;20208;-78
2022/08/06 01:31:48;;;;;;;2.77;1.30;;;;;;;15.89;100.00;99795.00;5057414;27;20247;-78
2022/08/06 01:34:25;;;;;;;4.90;1.30;;;;;;;15.81;100.00;99792.03;5113414;28;20222;-78
2022/08/06 01:37:04;;;;;;;0.80;0.80;;;;;;;15.91;100.00;99817.09;5109186;28;20206;-78
2022/08/06 01:39:36;;;;;;;1.77;0.80;;;;;;;16.02;100.00;99807.31;5102976;28;20205;-78
2022/08/06 01:42:30;;;;;;;1.47;0.80;;;;;;;15.98;100.00;99800.50;5113349;28;20203;-78
2022/08/06 01:45:08;;;;;;;1.10;0.90;;;;;;;15.86;100.00;99792.56;5111067;28;20308;-78
2022/08/06 01:47:39;;;;;;;2.80;0.90;;;;;;;15.77;100.00;99802.13;5108721;28;20201;-78
2022/08/06 01:50:28;;;;;;;3.93;1.30;;;;;;;15.79;100.00;99804.66;5111857;28;20190;-78
2022/08/06 01:53:00;;;;;;;2.13;1.00;;;;;;;15.67;100.00;99807.28;5071557;28;20241;-78
2022/08/06 01:55:34;;;;;;;3.13;1.00;;;;;;;15.64;100.00;99812.03;5053197;28;20211;-78
2022/08/06 01:58:27;;;;;;;1.73;0.90;;;;;;;15.67;100.00;99815.31;5051433;28;20644;-77
2022/08/06 02:01:01;;;;;;;1.97;0.80;;;;;;;15.72;100.00;99813.13;5042457;28;20200;-78
2022/08/06 02:03:33;;;;;;;1.97;0.87;;;;;;;15.75;100.00;99820.09;5050297;28;20203;-78
2022/08/06 02:06:21;;;;;;;1.03;0.80;;;;;;;15.83;100.00;99823.03;5050958;28;20217;-78
2022/08/06 02:09:00;;;;;;;2.23;1.00;;;;;;;15.86;100.00;99812.13;5048407;28;20193;-78
2022/08/06 02:11:54;;;;;;;2.03;1.10;;;;;;;15.85;100.00;99817.56;5051232;27;20196;-78
2022/08/06 02:14:38;;;;;;;2.53;0.90;;;;;;;15.67;100.00;99830.47;5046420;28;20226;-78
2022/08/06 02:17:14;;;;;;;2.80;1.13;;;;;;;15.52;100.00;99824.41;5042181;28;20220;-78
2022/08/06 02:19:46;;;;;;;2.33;1.00;;;;;;;15.48;100.00;99824.75;5050484;28;20207;-77
2022/08/06 02:22:38;;;;;;;4.07;1.20;;;;;;;15.37;100.00;99831.75;5051103;27;20251;-78
2022/08/06 02:25:13;;;;;;;3.20;1.10;;;;;;;15.04;100.00;99832.34;5049406;28;20242;-78
2022/08/06 02:28:00;;;;;;;1.43;1.00;;;;;;;15.20;100.00;99825.91;5050717;28;20225;-78
2022/08/06 02:30:33;;;;;;;2.43;0.80;;;;;;;15.06;100.00;99834.94;5049499;28;20197;-78
2022/08/06 02:33:13;;;;;;;1.20;1.10;;;;;;;15.16;100.00;99846.66;5047562;28;20334;-78
2022/08/06 02:35:50;;;;;;;2.90;1.00;;;;;;;15.09;100.00;99835.56;5050691;28;20703;-78
2022/08/06 02:38:25;;;;;;;1.07;0.97;;;;;;;14.94;100.00;99849.13;5051275;28;20205;-78
2022/08/06 02:41:01;;;;;;;1.93;1.00;;;;;;;14.95;100.00;99843.69;5050740;28;20189;-78
2022/08/06 02:43:35;;;;;;;1.70;1.03;;;;;;;15.00;100.00;99846.88;5052817;28;20280;-78
2022/08/06 02:46:13;;;;;;;2.70;1.20;;;;;;;14.86;100.00;99855.88;5046347;28;20225;-78
2022/08/06 02:48:48;;;;;;;1.10;1.00;;;;;;;14.84;100.00;99852.44;5049853;28;20199;-79
2022/08/06 02:51:21;;;;;;;4.77;1.23;;;;;;;14.78;100.00;99852.03;5047075;28;20193;-78
2022/08/06 02:54:18;;;;;;;1.80;1.10;;;;;;;14.62;100.00;99851.41;5007472;28;20210;-78
2022/08/06 02:56:51;;;;;;;3.20;1.07;;;;;;;14.59;100.00;99852.47;5002662;28;20273;-78
2022/08/06 02:59:27;;;;;;;2.20;1.00;;;;;;;14.40;100.00;99850.19;5002819;28;20201;-78
2022/08/06 03:02:10;;;;;;;3.97;1.40;;;;;;;14.39;100.00;99850.28;5008277;28;20277;-78
2022/08/06 03:04:48;;;;;;;3.30;1.23;;;;;;;14.25;100.00;99851.22;5001750;28;20213;-78
2022/08/06 03:07:26;;;;;;;3.20;1.43;;;;;;;14.24;100.00;99868.16;5008774;28;20255;-78
2022/08/06 03:10:02;;;;;;;2.13;1.20;;;;;;;14.22;100.00;99864.75;5002248;28;20321;-78
2022/08/06 03:12:40;;;;;;;3.40;1.20;;;;;;;14.22;100.00;99860.28;5036424;28;20208;-78
2022/08/06 03:15:11;;;;;;;4.30;1.30;;;;;;;14.35;100.00;99859.44;5048961;28;20211;-77
2022/08/06 03:18:01;;;;;;;2.53;1.43;;;;;;;14.23;100.00;99856.66;5050173;27;20205;-78
2022/08/06 03:20:34;;;;;;;3.70;1.03;;;;;;;13.97;100.00;99858.41;5047831;28;20231;-78
2022/08/06 03:23:08;;;;;;;2.60;1.30;;;;;;;14.15;100.00;99860.78;5046654;28;20193;-78
2022/08/06 03:25:39;;;;;;;2.83;1.37;;;;;;;14.24;100.00;99860.19;5049552;28;20213;-78
2022/08/06 03:28:10;;;;;;;2.70;1.10;;;;;;;14.29;100.00;99861.59;5053261;27;20197;-77
2022/08/06 03:30:48;;;;;;;2.10;1.10;;;;;;;14.21;100.00;99863.06;5047128;28;20275;-78
2022/08/06 03:33:23;;;;;;;2.20;1.10;;;;;;;14.15;100.00;99871.44;5047191;28;20207;-78
2022/08/06 03:36:12;;;;;;;1.93;1.30;;;;;;;13.98;100.00;99872.56;5110951;28;20198;-78
2022/08/06 03:38:49;;;;;;;3.50;1.20;;;;;;;14.08;100.00;99880.81;5107632;28;20779;-78
2022/08/06 03:41:24;;;;;;;2.43;1.17;;;;;;;14.03;100.00;99881.13;5079900;28;20194;-78
2022/08/06 03:44:05;;;;;;;2.87;1.03;;;;;;;14.14;100.00;99885.72;5108464;28;20282;-77
2022/08/06 03:46:42;;;;;;;4.47;1.20;;;;;;;14.15;100.00;99890.97;5104552;28;20297;-78
2022/08/06 03:49:16;;;;;;;2.50;1.10;;;;;;;14.16;100.00;99892.66;5107091;28;20199;-78
2022/08/06 03:52:01;;;;;;;1.57;1.20;;;;;;;14.04;100.00;99897.00;5103886;28;20666;-78
2022/08/06 03:54:33;;;;;;;4.50;1.17;;;;;;;14.19;100.00;99897.81;5067845;28;20193;-78
2022/08/06 03:57:14;;;;;;;1.50;1.10;;;;;;;14.30;100.00;99897.94;5051711;28;20204;-78
2022/08/06 03:59:45;;;;;;;1.57;1.10;;;;;;;14.34;100.00;99895.91;5048968;28;20200;-78
2022/08/06 04:02:38;;;;;;;1.60;1.10;;;;;;;14.44;100.00;99902.31;5048894;28;20276;-77
2022/08/06 04:05:19;;;;;;;2.40;1.00;;;;;;;14.28;100.00;99893.63;5091546;28;20201;-78
2022/08/06 04:07:53;;;;;;;1.70;1.10;;;;;;;14.23;100.00;99901.97;5053679;28;20698;-78
2022/08/06 04:10:27;;;;;;;3.97;1.17;;;;;;;14.30;100.00;99897.09;5048229;28;20588;-78
2022/08/06 04:13:04;;;;;;;2.20;1.13;;;;;;;13.87;100.00;99910.56;5046046;28;20222;-78
2022/08/06 04:15:55;;;;;;;2.13;1.10;;;;;;;14.09;100.00;99911.81;5051547;27;20193;-78
2022/08/06 04:18:26;;;;;;;1.73;1.00;;;;;;;14.00;100.00;99910.66;5055529;27;20197;-78
2022/08/06 04:20:58;;;;;;;1.20;1.10;;;;;;;14.18;100.00;99914.72;5051096;28;20261;-78
2022/08/06 04:23:49;;;;;;;4.87;1.40;;;;;;;14.07;100.00;99922.56;5133737;27;20203;-78
2022/08/06 04:26:23;;;;;;;2.70;1.37;;;;;;;14.15;100.00;99920.25;5132341;27;20214;-78
2022/08/06 04:28:55;;;;;;;2.77;1.10;;;;;;;14.27;100.00;99923.91;5130297;27;20273;-77
2022/08/06 04:31:30;;;;;;;3.43;1.33;;;;;;;14.27;100.00;99923.91;5130589;27;20273;-78
2022/08/06 04:34:22;;;;;;;4.13;1.27;;;;;;;14.08;100.00;99928.75;5135174;27;20219;-78
2022/08/06 04:36:58;;;;;;;1.90;1.20;;;;;;;14.21;100.00;99930.53;5133678;27;20681;-78
2022/08/06 04:39:34;;;;;;;2.30;1.30;;;;;;;14.29;100.00;99936.19;5128429;27;20201;-78
2022/08/06 04:42:17;;;;;;;2.17;1.20;;;;;;;14.45;100.00;99932.53;5068627;27;20205;-78
2022/08/06 04:44:46;;;;;;;1.67;1.20;;;;;;;14.39;100.00;99938.25;5056154;27;20201;-77
2022/08/06 04:47:30;;;;;;;2.57;1.40;;;;;;;14.56;100.00;99936.16;5052167;28;20682;-79
2022/08/06 04:50:10;;;;;;;3.53;1.30;;;;;;;14.28;100.00;99931.84;5052331;28;20189;-78
2022/08/06 04:52:39;;;;;;;3.60;1.33;;;;;;;14.40;100.00;99937.28;5055730;27;20197;-78
2022/08/06 04:55:20;;;;;;;2.73;1.27;;;;;;;14.50;100.00;99935.75;5049626;28;20197;-78
2022/08/06 04:57:54;;;;;;;3.37;1.40;;;;;;;14.25;100.00;99940.00;5058490;27;20280;-78
2022/08/06 05:00:31;;;;;;;2.80;1.30;;;;;;;14.45;100.00;99944.03;5052023;27;20287;-78
2022/08/06 05:03:19;;;;;;;2.47;1.33;;;;;;;14.47;100.00;99942.13;5052413;27;20197;-78
2022/08/06 05:06:20;;;;;;;4.70;1.33;;;;;;;14.46;100.00;99943.06;5052381;27;20197;-77
2022/08/06 05:08:54;;;;;;;1.53;1.40;;;;;;;14.54;100.00;99950.56;5048078;28;20201;-78
2022/08/06 05:11:27;;;;;;;3.50;1.27;;;;;;;14.37;100.00;99951.66;5053749;28;20197;-78
2022/08/06 05:13:59;;;;;;;3.03;1.30;;;;;;;14.45;100.00;99954.69;5045534;28;20216;-78
2022/08/06 05:16:31;;;;;;;3.20;1.37;;;;;;;14.62;100.00;99952.72;5051664;28;20201;-78
2022/08/06 05:19:03;;;;;;;1.53;1.40;;;;;;;14.46;100.00;99952.88;5047987;28;20234;-77
2022/08/06 05:21:50;;;;;;;2.87;1.30;;;;;;;14.56;100.00;99952.16;5051998;27;20217;-77
2022/08/06 05:24:41;;;;;;;1.80;1.10;;;;;;;14.44;100.00;99947.63;5050806;27;20201;-78
2022/08/06 05:27:31;;;;;;;1.87;1.30;;;;;;;14.74;100.00;99957.22;5050930;28;20217;-78
2022/08/06 05:30:20;;;;;;;2.77;1.03;;;;;;;14.85;100.00;99951.97;5051957;27;20201;-78
2022/08/06 05:32:49;;;;;;;2.87;1.20;;;;;;;14.85;100.00;99951.97;5052011;28;20250;-78
2022/08/06 05:35:24;;;;;;;1.40;1.20;;;;;;;14.90;100.00;99960.53;5051542;28;20189;-78
2022/08/06 05:38:09;;;;;;;1.70;1.20;;;;;;;15.08;100.00;99964.59;5050423;28;20272;-78
2022/08/06 05:40:40;;;;;;;1.80;1.17;;;;;;;15.16;100.00;99962.25;5050006;28;20197;-78
2022/08/06 05:43:26;;;;;;;4.67;1.40;;;;;;;15.04;100.00;99968.44;5057387;27;20197;-78
2022/08/06 05:46:19;;;;;;;2.77;1.30;;;;;;;15.26;100.00;99972.28;5051341;27;20200;-77
2022/08/06 05:48:56;;;;;;;1.37;1.20;;;;;;;15.49;100.00;99973.31;5050535;28;20197;-78
2022/08/06 05:51:38;;;;;;;4.73;1.30;;;;;;;15.66;100.00;99976.53;5046534;28;20273;-78
2022/08/06 05:54:20;;;;;;;5.00;1.30;;;;;;;15.65;100.00;99988.19;5048695;28;20196;-77
2022/08/06 05:56:51;;;;;;;2.93;1.30;;;;;;;15.66;100.00;99989.88;5049138;28;20197;-78
2022/08/06 05:59:29;;;;;;;3.70;1.33;;;;;;;15.64;100.00;99986.47;5051367;28;20225;-78
2022/08/06 06:02:19;;;;;;;5.17;1.20;;;;;;;15.73;100.00;99982.28;5023611;28;20225;-78
2022/08/06 06:04:49;;;;;;;3.60;1.10;;;;;;;15.89;100.00;99984.69;5047027;28;20205;-78
2022/08/06 06:07:38;;;;;;;4.00;1.43;;;;;;;15.86;100.00;99996.47;5051142;27;20217;-78
2022/08/06 06:10:28;;;;;;;4.20;1.23;;;;;;;15.69;100.00;99994.16;5050067;27;20201;-78
2022/08/06 06:13:01;;;;;;;3.63;1.23;;;;;;;15.73;100.00;99998.31;5046418;28;20265;-78
2022/08/06 06:15:35;;;;;;;3.57;1.37;;;;;;;15.79;100.00;99999.69;5050574;28;20193;-78
2022/08/06 06:18:37;;;;;;;4.13;1.60;;;;;;;15.85;100.00;100004.59;5051079;28;20201;-78
2022/08/06 06:21:16;;;;;;;2.73;1.10;;;;;;;16.06;100.00;100004.84;5056771;27;20232;-78
2022/08/06 06:24:07;;;;;;;3.17;1.20;;;;;;;16.24;100.00;100007.03;5056055;27;20204;-78
2022/08/06 06:26:42;;;;;;;5.73;1.40;;;;;;;16.22;100.00;100008.97;5050128;28;20185;-78
2022/08/06 06:29:18;;;;;;;2.67;1.10;;;;;;;16.30;100.00;100009.22;5057030;27;20208;-77
2022/08/06 06:32:14;;;;;;;2.37;1.10;;;;;;;16.39;100.00;100010.38;5050932;27;20246;-78
2022/08/06 06:35:04;;;;;;;2.63;1.10;;;;;;;16.38;100.00;100013.16;5050997;28;20217;-78
2022/08/06 06:37:43;;;;;;;1.97;1.30;;;;;;;16.52;100.00;100013.00;5050471;28;20199;-78
2022/08/06 06:40:30;;;;;;;3.57;1.00;;;;;;;16.67;100.00;100010.97;5048575;28;20200;-78
2022/08/06 06:43:06;;;;;;;3.17;1.30;;;;;;;16.64;100.00;100011.22;5050882;28;20201;-78
2022/08/06 06:45:42;;;;;;;3.83;1.17;;;;;;;16.62;100.00;100007.81;5050495;28;20196;-78
2022/08/06 06:48:38;;;;;;;3.57;1.07;;;;;;;16.72;100.00;100016.88;5050458;27;20249;-78
2022/08/06 06:51:13;;;;;;;1.90;1.00;;;;;;;16.84;100.00;100024.81;5047762;28;20225;-78
2022/08/06 06:54:02;;;;;;;2.03;1.07;;;;;;;17.06;100.00;100028.53;5034341;28;20201;-78
2022/08/06 06:56:40;;;;;;;2.60;1.10;;;;;;;16.88;100.00;100014.72;5054471;27;20287;-78
2022/08/06 06:59:15;;;;;;;3.73;1.17;;;;;;;17.07;100.00;100020.38;5046267;28;20277;-78
2022/08/06 07:01:47;;;;;;;3.57;1.20;;;;;;;17.01;100.00;100018.19;5051854;27;20196;-78
2022/08/06 07:04:25;;;;;;;2.57;1.40;;;;;;;17.07;100.00;100024.88;5008624;28;20198;-78
2022/08/06 07:06:58;;;;;;;2.07;1.10;;;;;;;17.20;100.00;100035.50;5006395;28;20208;-78
2022/08/06 07:09:36;;;;;;;3.07;1.20;;;;;;;17.43;100.00;100018.47;5009301;28;20691;-78
2022/08/06 07:12:11;;;;;;;2.67;1.07;;;;;;;17.32;100.00;100018.47;5010504;28;20250;-78
2022/08/06 07:14:55;;;;;;;2.97;1.00;;;;;;;17.41;100.00;100015.94;5006769;28;20204;-78
2022/08/06 07:17:31;;;;;;;4.93;1.10;;;;;;;17.43;100.00;100027.38;5004976;28;20250;-78
2022/08/06 07:20:21;;;;;;;2.80;1.20;;;;;;;17.50;100.00;100021.53;5005461;28;20205;-78
2022/08/06 07:22:55;;;;;;;4.77;1.10;;;;;;;17.68;100.00;100025.44;5033451;28;20276;-78
2022/08/06 07:25:50;;;;;;;2.77;1.10;;;;;;;17.76;100.00;100019.47;5050009;28;20197;-77
2022/08/06 07:28:25;;;;;;;4.43;1.30;;;;;;;17.83;100.00;100024.25;5051739;28;20248;-78
2022/08/06 07:30:58;;;;;;;4.23;1.50;;;;;;;17.85;100.00;100033.00;5056116;27;20212;-78
2022/08/06 07:33:39;;;;;;;4.87;1.50;;;;;;;17.98;100.00;100043.63;5049974;27;20189;-77
2022/08/06 07:36:38;;;;;;;6.80;1.23;;;;;;;17.89;100.00;100031.78;5050267;27;20458;-78
2022/08/06 07:39:10;;;;;;;3.10;1.33;;;;;;;17.92;100.00;100028.00;5055067;27;20239;-78
2022/08/06 07:41:43;;;;;;;2.27;1.53;;;;;;;17.95;100.00;100030.44;5047555;28;20200;-78
2022/08/06 07:44:37;;;;;;;4.13;1.60;;;;;;;18.18;100.00;100033.94;5049769;27;20197;-78
2022/08/06 07:47:27;;;;;;;3.77;1.17;;;;;;;18.44;100.00;100030.00;5049471;28;20691;-78
2022/08/06 07:50:16;;;;;;;1.10;0.80;;;;;;;18.62;100.00;100030.25;5051108;27;20212;-78
2022/08/06 07:52:54;;;;;;;2.90;1.33;;;;;;;18.59;100.00;100046.63;5053365;27;20193;-78
2022/08/06 07:55:25;;;;;;;2.90;1.10;;;;;;;18.69;100.00;100036.88;5051750;28;20246;-78
2022/08/06 07:58:07;;;;;;;1.80;1.07;;;;;;;18.59;100.00;100038.59;5050790;28;20208;-78
2022/08/06 08:00:44;;;;;;;8.90;1.40;;;;;;;18.24;100.00;100037.00;5053609;28;20224;-78
2022/08/06 08:06:28;;;;;;;2.60;1.13;;;;;;;18.53;100.00;100039.97;5052459;27;20208;-78
2022/08/06 08:09:07;;;;;;;3.73;1.30;;;;;;;18.77;100.00;100049.66;5108906;27;20205;-78
2022/08/06 08:11:40;;;;;;;4.00;1.10;;;;;;;19.01;100.00;100052.09;5142622;27;20249;-78
2022/08/06 08:14:30;;;;;;;2.57;1.17;;;;;;;19.13;100.00;100051.06;5052310;28;20201;-78
2022/08/06 08:17:00;;;;;;;2.00;1.20;;;;;;;19.00;100.00;100042.34;5071789;27;20190;-78
2022/08/06 08:19:32;;;;;;;3.83;1.00;;;;;;;19.36;100.00;100039.19;5012351;28;20207;-79
2022/08/06 08:22:05;;;;;;;2.97;1.30;;;;;;;19.25;96.94;100049.16;5040502;28;20297;-79
2022/08/06 08:24:36;;;;;;;3.47;1.10;;;;;;;19.53;98.43;100043.09;5108978;28;20237;-78
2022/08/06 08:27:09;;;;;;;4.30;1.00;;;;;;;19.42;95.76;100052.09;5064959;28;20187;-79
2022/08/06 08:29:58;;;;;;;4.93;1.50;;;;;;;19.44;98.50;100039.38;5068474;28;20222;-78
2022/08/06 08:32:28;;;;;;;2.27;0.90;;;;;;;19.64;94.43;100042.19;5111164;28;20199;-79
2022/08/06 08:34:57;;;;;;;3.13;0.90;;;;;;;19.61;90.70;100048.69;5049460;28;20194;-79
2022/08/06 08:37:28;;;;;;;3.90;1.10;;;;;;;19.10;93.61;100048.63;5046709;27;20193;-78
2022/08/06 08:40:02;;;;;;;1.83;0.90;;;;;;;19.52;92.44;100041.41;5113641;27;20228;-78
2022/08/06 08:42:37;;;;;;;3.77;1.00;;;;;;;19.45;94.72;100041.06;5052875;28;20201;-79
2022/08/06 08:45:07;;;;;;;6.80;1.43;;;;;;;19.88;88.51;100044.56;5055428;27;20275;-78
2022/08/06 08:47:46;;;;;;;1.80;1.10;;;;;;;20.12;83.83;100053.13;5070432;28;20271;-79
2022/08/06 08:50:24;;;;;;;1.73;0.97;;;;;;;19.85;79.66;100052.91;5067284;28;20661;-79
2022/08/06 08:52:59;;;;;;;4.80;1.40;;;;;;;20.15;79.12;100055.53;5071869;28;20196;-78
2022/08/06 08:55:32;;;;;;;2.53;1.00;;;;;;;20.21;76.06;100049.63;5072731;28;20219;-79
2022/08/06 08:58:22;;;;;;;2.77;1.63;;;;;;;20.30;74.75;100045.25;5072463;28;20196;-79
2022/08/06 09:01:10;;;;;;;3.40;1.00;;;;;;;20.41;75.44;100050.50;5072353;28;20196;-79
2022/08/06 09:04:02;;;;;;;3.37;0.93;;;;;;;20.48;77.88;100053.53;5072290;28;20204;-79
2022/08/06 09:06:32;;;;;;;2.37;0.80;;;;;;;20.86;77.28;100040.09;5066261;28;20192;-79
2022/08/06 09:09:07;;;;;;;4.27;0.93;;;;;;;20.91;76.27;100039.66;5069130;28;20226;-78
2022/08/06 09:11:45;;;;;;;1.63;0.87;;;;;;;21.34;69.63;100046.47;5053074;28;20197;-79
2022/08/06 09:14:33;;;;;;;3.43;1.07;;;;;;;21.43;62.46;100037.50;5031812;28;20209;-78
2022/08/06 09:17:02;;;;;;;2.43;0.63;;;;;;;20.95;60.09;100037.56;5037355;27;20202;-79
2022/08/06 09:19:32;;;;;;;2.53;0.83;;;;;;;21.06;61.47;100035.56;5130232;27;20269;-79
2022/08/06 09:22:07;;;;;;;1.17;0.73;;;;;;;21.63;63.57;100035.59;5071863;27;20216;-79
2022/08/06 09:24:36;;;;;;;4.27;0.97;;;;;;;21.75;62.78;100037.09;5053462;27;20201;-80
2022/08/06 09:27:09;;;;;;;3.25;1.33;;;;;;;22.09;63.10;100026.59;5051558;28;20284;-79
2022/08/06 09:30:02;;;;;;;1.77;0.70;;;;;;;22.18;68.30;100033.78;5051124;27;20221;-78
2022/08/06 09:32:50;;;;;;;2.77;1.07;;;;;;;21.41;70.42;100043.00;5050800;28;20201;-78
2022/08/06 09:35:26;;;;;;;2.20;0.80;;;;;;;21.51;72.60;100029.50;5105742;28;20227;-79
2022/08/06 09:38:10;;;;;;;1.20;0.80;;;;;;;21.08;69.80;100035.41;5076906;28;20194;-78
2022/08/06 09:41:03;;;;;;;2.37;1.00;;;;;;;21.13;71.80;100035.81;5103655;28;20221;-78
2022/08/06 09:43:36;;;;;;;4.33;1.10;;;;;;;20.89;71.90;100038.09;5104303;28;20206;-78
2022/08/06 09:46:40;;;;;;;2.37;1.00;;;;;;;21.43;70.28;100048.28;5113652;28;20298;-79
2022/08/06 09:49:12;;;;;;;2.93;0.90;;;;;;;21.73;70.54;100035.56;5112933;28;20225;-79
2022/08/06 09:52:16;;;;;;;3.07;1.10;;;;;;;21.96;67.05;100034.16;5112985;28;20191;-78
2022/08/06 09:54:48;;;;;;;3.43;1.10;;;;;;;21.69;68.49;100034.97;5043685;28;20288;-78
2022/08/06 09:57:21;;;;;;;4.07;1.00;;;;;;;21.92;66.51;100038.16;5046177;28;20704;-78
2022/08/06 10:00:05;;;;;;;2.03;0.80;;;;;;;22.48;62.77;100037.97;5049931;28;20221;-79
2022/08/06 10:02:42;;;;;;;1.93;0.80;;;;;;;22.63;62.02;100027.50;5051354;28;20624;-79
2022/08/06 10:05:18;;;;;;;2.13;0.93;;;;;;;22.56;61.59;100035.38;5054067;28;20289;-78
2022/08/06 10:07:48;;;;;;;2.10;0.90;;;;;;;22.57;60.87;100038.91;5051482;27;20201;-78
2022/08/06 10:10:39;;;;;;;2.53;1.20;;;;;;;22.39;63.41;100046.16;5050312;28;20247;-79
2022/08/06 10:13:19;;;;;;;1.60;0.85;;;;;;;22.65;61.76;100041.72;5100075;28;20193;-79
2022/08/06 10:16:03;;;;;;;3.03;0.75;;;;;;;22.55;59.63;100032.84;5054398;28;20193;-77
2022/08/06 10:18:37;;;;;;;1.43;0.73;;;;;;;22.83;57.06;100034.44;5051259;28;20200;-78
2022/08/06 10:21:28;;;;;;;1.92;0.88;;;;;;;22.48;54.70;100032.59;5050922;28;20232;-79
2022/08/06 10:24:18;;;;;;;2.47;0.90;;;;;;;22.97;55.31;100027.69;5049912;28;20268;-78
2022/08/06 10:27:09;;;;;;;1.88;0.80;;;;;;;22.94;55.55;100035.25;5051344;28;20197;-79
2022/08/06 10:30:01;;;;;;;3.83;0.70;;;;;;;23.14;55.84;100031.34;5049568;28;20308;-79
2022/08/06 10:32:42;;;;;;;2.33;0.88;;;;;;;23.27;52.65;100031.81;5052079;28;20197;-79
2022/08/06 10:35:16;;;;;;;2.28;0.68;;;;;;;23.73;51.80;100029.72;5042413;28;20217;-78
2022/08/06 10:37:53;;;;;;;2.97;0.80;;;;;;;24.02;52.40;100033.94;5051010;28;20219;-79
2022/08/06 10:40:24;;;;;;;1.63;0.90;;;;;;;23.59;53.42;100030.34;5045124;28;20275;-78
2022/08/06 10:43:00;;;;;;;3.33;0.90;;;;;;;24.22;51.15;100038.06;5047882;28;20232;-79
2022/08/06 10:45:34;;;;;;;4.47;0.70;;;;;;;23.26;53.26;100032.81;5088547;28;20188;-79
2022/08/06 10:48:19;;;;;;;2.53;1.00;;;;;;;23.44;53.19;100032.75;5090998;28;20225;-79
2022/08/06 10:51:10;;;;;;;2.00;1.75;;;;;;;24.07;50.87;100037.00;5091685;28;20223;-78
2022/08/06 10:53:42;;;;;;;3.30;1.63;;;;;;;24.24;49.44;100034.19;5080278;28;20207;-78
2022/08/06 10:56:32;;;;;;;1.83;0.60;;;;;;;24.48;42.55;100033.44;5093072;28;20237;-79
2022/08/06 10:59:14;;;;;;;2.80;0.70;;;;;;;24.40;42.51;100021.72;5028366;28;20202;-78
2022/08/06 11:02:02;;;;;;;1.95;0.60;;;;;;;24.73;42.78;100028.91;5031409;28;20194;-78
2022/08/06 11:04:47;;;;;;;2.20;0.80;;;;;;;24.77;46.83;100027.53;5043141;28;20200;-78
2022/08/06 11:07:46;;;;;;;1.42;0.80;;;;;;;25.10;42.68;100014.88;5043814;28;20258;-79
2022/08/06 11:10:57;;;;;;;2.17;0.70;;;;;;;25.26;41.86;100022.13;5037567;28;20259;-79
2022/08/06 11:13:47;;;;;;;2.63;0.90;;;;;;;25.57;41.22;100000.53;5048381;28;20197;-79
2022/08/06 11:16:24;;;;;;;2.67;0.70;;;;;;;25.20;43.21;99997.59;5022594;28;20749;-79
2022/08/06 11:19:02;;;;;;;1.83;0.60;;;;;;;25.50;43.56;100007.69;5048639;28;20189;-78
2022/08/06 11:21:41;;;;;;;2.15;0.70;;;;;;;25.73;43.72;99993.41;5053233;28;20244;-79
2022/08/06 11:24:31;;;;;;;1.15;0.65;;;;;;;25.38;45.52;99995.50;5049206;28;20192;-79
2022/08/06 11:27:26;;;;;;;1.30;0.70;;;;;;;25.37;45.46;100002.78;5049476;28;20189;-79
2022/08/06 11:30:15;;;;;;;1.92;0.77;;;;;;;24.62;45.02;100010.28;5073388;28;20221;-79
2022/08/06 11:32:53;;;;;;;3.47;0.90;;;;;;;24.51;46.39;100005.16;5048774;28;20700;-79
2022/08/06 11:35:46;;;;;;;2.30;0.70;;;;;;;25.68;43.64;99996.63;5049887;28;20198;-78
2022/08/06 11:39:00;;;;;;;2.72;0.70;;;;;;;25.44;42.88;99991.25;5048756;28;20201;-78
2022/08/06 11:41:49;;;;;;;1.95;0.70;;;;;;;24.89;43.89;99998.22;5050154;28;20192;-79
2022/08/06 11:44:29;;;;;;;1.45;0.60;;;;;;;24.34;43.39;100004.28;5048504;28;20287;-78
2022/08/06 11:47:10;;;;;;;1.67;0.68;;;;;;;24.56;43.33;99997.38;5046032;28;20203;-79
2022/08/06 11:49:42;;;;;;;3.38;0.70;;;;;;;24.41;42.35;99996.34;5049888;28;20671;-78
2022/08/06 11:52:42;;;;;;;0.82;0.60;;;;;;;24.27;42.70;99990.53;5049725;28;20189;-78
2022/08/06 11:55:15;;;;;;;1.67;0.70;;;;;;;24.85;41.53;99983.34;5044347;28;20203;-78
2022/08/06 11:58:22;;;;;;;1.58;0.65;;;;;;;24.62;42.29;99983.19;5017955;28;20193;-78
2022/08/06 12:01:01;;;;;;;1.55;0.70;;;;;;;25.57;42.14;99984.25;5050488;28;20232;-79
2022/08/06 12:03:50;;;;;;;2.70;0.80;;;;;;;26.23;40.80;99971.25;5049839;28;20294;-79
2022/08/06 12:06:23;;;;;;;1.73;0.80;;;;;;;25.99;40.28;99968.69;5046860;28;20205;-79
2022/08/06 12:09:10;;;;;;;1.42;0.75;;;;;;;26.04;40.30;99961.69;5040972;28;20197;-79
2022/08/06 12:11:51;;;;;;;1.73;0.77;;;;;;;26.30;39.07;99961.38;5048845;28;20221;-79
2022/08/06 12:14:41;;;;;;;2.13;0.80;;;;;;;26.45;38.49;99967.75;5049531;28;20681;-79
2022/08/06 12:17:18;;;;;;;1.83;0.70;;;;;;;26.69;37.05;99964.00;5051459;28;20197;-79
2022/08/06 12:20:09;;;;;;;3.85;0.75;;;;;;;26.86;36.94;99966.59;5049597;28;20197;-79
2022/08/06 12:22:41;;;;;;;1.27;0.50;;;;;;;26.83;35.98;99956.94;5048992;28;20189;-79
2022/08/06 12:25:16;;;;;;;2.83;0.70;;;;;;;25.75;37.51;99956.91;5052809;28;20205;-79
2022/08/06 12:27:47;;;;;;;1.00;0.70;;;;;;;26.21;37.73;99957.84;5049341;28;20205;-79